createdAt,value
2019-01-25T00:00:27.419Z,100757.61
2019-01-25T00:02:56.147Z,100752.88
2019-01-25T00:05:24.560Z,100753.84
2019-01-25T00:07:53.345Z,100751.42
2019-01-25T00:10:22.129Z,100748.63
2019-01-25T00:12:50.910Z,100742.84
2019-01-25T00:15:19.728Z,100745.16
2019-01-25T00:17:48.529Z,100748.05
2019-01-25T00:20:17.319Z,100739.66
2019-01-25T00:22:46.080Z,100742.27
2019-01-25T00:25:14.939Z,100744.86
2019-01-25T00:27:43.787Z,100744.86
2019-01-25T00:30:15.568Z,100744.09
2019-01-25T00:32:44.341Z,100749.97
2019-01-25T00:35:13.221Z,100745.73
2019-01-25T00:37:41.668Z,100745.73
2019-01-25T00:40:13.130Z,100749.88
2019-01-25T00:42:41.836Z,100754.41
2019-01-25T00:45:12.062Z,100754.41
2019-01-25T00:47:40.778Z,100753.16
2019-01-25T00:50:18.183Z,100749.22
2019-01-25T00:52:47.642Z,100746.41
2019-01-25T00:55:16.202Z,100744.48
2019-01-25T00:57:44.883Z,100741.87
2019-01-25T01:00:24.743Z,100744.48
2019-01-25T01:02:53.769Z,100739.75
2019-01-25T01:05:22.789Z,100738.50
2019-01-25T01:07:51.823Z,100728.95
2019-01-25T01:10:20.941Z,100732.03
2019-01-25T01:12:50.439Z,100740.80
2019-01-25T01:15:19.424Z,100732.50
2019-01-25T01:17:48.590Z,100734.44
2019-01-25T01:20:19.224Z,100738.69
2019-01-25T01:22:48.264Z,100740.41
2019-01-25T01:25:17.420Z,100738.69
2019-01-25T01:27:46.290Z,100747.38
2019-01-25T01:30:18.056Z,100751.22
2019-01-25T01:32:46.849Z,100752.09
2019-01-25T01:35:15.618Z,100760.09
2019-01-25T01:37:44.419Z,100754.78
2019-01-25T01:40:21.761Z,100758.06
2019-01-25T01:42:46.817Z,100755.26
2019-01-25T01:45:15.763Z,100757.17
2019-01-25T01:47:44.599Z,100756.22
2019-01-25T01:50:15.589Z,100754.39
2019-01-25T01:52:44.481Z,100759.31
2019-01-25T01:55:13.290Z,100767.80
2019-01-25T01:57:42.064Z,100764.03
2019-01-25T02:00:13.821Z,100762.01
2019-01-25T02:02:42.541Z,100755.92
2019-01-25T02:05:11.478Z,100759.68
2019-01-25T02:07:40.311Z,100758.43
2019-01-25T02:10:14.742Z,100760.84
2019-01-25T02:12:43.597Z,100765.00
2019-01-25T02:15:15.191Z,100752.75
2019-01-25T02:17:43.947Z,100757.28
2019-01-25T02:20:26.909Z,100759.31
2019-01-25T02:22:55.461Z,100759.50
2019-01-25T02:25:24.423Z,100760.45
2019-01-25T02:27:53.187Z,100755.92
2019-01-25T02:30:26.089Z,100763.18
2019-01-25T02:32:54.822Z,100763.66
2019-01-25T02:35:23.688Z,100767.03
2019-01-25T02:37:52.829Z,100767.81
2019-01-25T02:40:23.602Z,100769.06
2019-01-25T02:42:52.260Z,100762.80
2019-01-25T02:45:20.871Z,100757.17
2019-01-25T02:47:49.403Z,100758.94
2019-01-25T02:50:19.751Z,100761.16
2019-01-25T02:52:48.689Z,100759.90
2019-01-25T02:55:17.785Z,100762.88
2019-01-25T02:57:46.451Z,100760.77
2019-01-25T03:00:23.799Z,100761.63
2019-01-25T03:02:53.878Z,100750.82
2019-01-25T03:05:23.514Z,100748.61
2019-01-25T03:07:52.535Z,100758.16
2019-01-25T03:10:28.494Z,100758.64
2019-01-25T03:12:53.338Z,100756.61
2019-01-25T03:15:24.574Z,100761.63
2019-01-25T03:17:53.546Z,100756.91
2019-01-25T03:20:22.771Z,100763.18
2019-01-25T03:22:51.560Z,100759.68
2019-01-25T03:25:22.619Z,100758.34
2019-01-25T03:27:51.592Z,100761.34
2019-01-25T03:30:25.040Z,100761.63
2019-01-25T03:32:54.278Z,100769.25
2019-01-25T03:35:24.940Z,100769.55
2019-01-25T03:37:53.757Z,100763.36
2019-01-25T03:40:27.104Z,100769.34
2019-01-25T03:42:56.108Z,100761.34
2019-01-25T03:45:25.449Z,100763.36
2019-01-25T03:47:54.942Z,100765.58
2019-01-25T03:50:26.238Z,100759.69
2019-01-25T03:52:55.086Z,100756.70
2019-01-25T03:55:23.899Z,100759.98
2019-01-25T03:57:52.493Z,100757.87
2019-01-25T04:00:29.258Z,100766.27
2019-01-25T04:02:58.271Z,100760.86
2019-01-25T04:05:26.857Z,100762.98
2019-01-25T04:07:55.791Z,100763.73
2019-01-25T04:10:26.558Z,100765.28
2019-01-25T04:12:55.386Z,100767.88
2019-01-25T04:15:29.352Z,100770.95
2019-01-25T04:17:57.848Z,100778.09
2019-01-25T04:20:26.691Z,100769.34
2019-01-25T04:22:55.260Z,100773.97
2019-01-25T04:25:24.605Z,100771.25
2019-01-25T04:27:54.153Z,100766.71
2019-01-25T04:30:27.906Z,100766.33
2019-01-25T04:32:56.864Z,100763.43
2019-01-25T04:35:25.783Z,100762.17
2019-01-25T04:37:54.361Z,100757.16
2019-01-25T04:40:23.033Z,100758.98
2019-01-25T04:42:51.609Z,100755.13
2019-01-25T04:45:21.864Z,100754.17
2019-01-25T04:47:50.797Z,100754.17
2019-01-25T04:50:26.118Z,100751.27
2019-01-25T04:52:55.871Z,100745.09
2019-01-25T04:55:29.921Z,100758.59
2019-01-25T04:58:07.393Z,100749.81
2019-01-25T05:00:36.172Z,100750.20
2019-01-25T05:03:05.630Z,100759.07
2019-01-25T05:05:34.486Z,100766.59
2019-01-25T05:08:05.579Z,100757.46
2019-01-25T05:10:34.667Z,100752.53
2019-01-25T05:13:03.412Z,100749.94
2019-01-25T05:15:32.229Z,100753.58
2019-01-25T05:18:01.006Z,100751.84
2019-01-25T05:20:29.608Z,100751.55
2019-01-25T05:23:02.733Z,100758.98
2019-01-25T05:25:31.211Z,100760.62
2019-01-25T05:28:04.350Z,100755.61
2019-01-25T05:30:32.779Z,100755.13
2019-01-25T05:33:01.228Z,100765.64
2019-01-25T05:35:34.477Z,100775.02
2019-01-25T05:38:03.134Z,100782.81
2019-01-25T05:40:32.493Z,100786.80
2019-01-25T05:43:01.215Z,100789.69
2019-01-25T05:45:30.044Z,100790.17
2019-01-25T05:47:58.746Z,100791.99
2019-01-25T05:50:27.166Z,100801.64
2019-01-25T05:52:56.031Z,100802.23
2019-01-25T05:55:24.801Z,100805.22
2019-01-25T05:57:59.292Z,100805.48
2019-01-25T06:00:29.692Z,100812.14
2019-01-25T06:03:03.229Z,100812.27
2019-01-25T06:05:31.937Z,100808.89
2019-01-25T06:08:00.636Z,100814.78
2019-01-25T06:10:32.409Z,100810.63
2019-01-25T06:13:01.176Z,100806.39
2019-01-25T06:15:29.816Z,100809.38
2019-01-25T06:18:03.545Z,100815.73
2019-01-25T06:20:32.514Z,100816.22
2019-01-25T06:23:01.378Z,100817.95
2019-01-25T06:25:30.157Z,100814.09
2019-01-25T06:27:58.905Z,100819.98
2019-01-25T06:30:27.595Z,100816.70
2019-01-25T06:32:56.399Z,100816.90
2019-01-25T06:35:26.029Z,100827.03
2019-01-25T06:37:54.808Z,100819.89
2019-01-25T06:40:23.474Z,100811.97
2019-01-25T06:42:52.168Z,100817.08
2019-01-25T06:45:20.998Z,100823.45
2019-01-25T06:47:49.514Z,100819.30
2019-01-25T06:50:18.400Z,100818.91
2019-01-25T06:52:46.857Z,100815.73
2019-01-25T06:55:15.582Z,100819.02
2019-01-25T06:57:45.645Z,100822.40
2019-01-25T07:00:19.784Z,100815.73
2019-01-25T07:02:48.649Z,100814.48
2019-01-25T07:05:17.496Z,100817.38
2019-01-25T07:07:47.082Z,100815.83
2019-01-25T07:10:18.426Z,100815.73
2019-01-25T07:12:47.220Z,100811.11
2019-01-25T07:15:17.731Z,100818.73
2019-01-25T07:17:46.577Z,100821.33
2019-01-25T07:20:16.518Z,100817.17
2019-01-25T07:22:45.224Z,100819.87
2019-01-25T07:25:15.400Z,100824.89
2019-01-25T07:27:44.177Z,100829.13
2019-01-25T07:30:16.985Z,100830.68
2019-01-25T07:32:45.910Z,100829.91
2019-01-25T07:35:14.961Z,100833.67
2019-01-25T07:37:43.523Z,100830.37
2019-01-25T07:40:12.681Z,100835.59
2019-01-25T07:42:41.257Z,100841.86
2019-01-25T07:45:14.705Z,100831.44
2019-01-25T07:47:43.142Z,100832.78
2019-01-25T07:50:12.801Z,100827.58
2019-01-25T07:52:41.817Z,100830.95
2019-01-25T07:55:12.197Z,100832.69
2019-01-25T07:57:41.009Z,100832.30
2019-01-25T08:00:12.235Z,100828.15
2019-01-25T08:02:40.748Z,100827.76
2019-01-25T08:05:10.733Z,100833.25
2019-01-25T08:07:39.764Z,100830.00
2019-01-25T08:10:17.016Z,100832.12
2019-01-25T08:12:45.782Z,100830.75
2019-01-25T08:15:17.583Z,100833.55
2019-01-25T08:17:46.318Z,100832.87
2019-01-25T08:20:15.735Z,100830.66
2019-01-25T08:22:44.477Z,100832.01
2019-01-25T08:25:13.370Z,100833.36
2019-01-25T08:27:42.114Z,100839.16
2019-01-25T08:30:20.111Z,100841.75
2019-01-25T08:32:48.850Z,100853.52
2019-01-25T08:35:17.805Z,100853.62
2019-01-25T08:37:46.499Z,100853.02
2019-01-25T08:40:16.409Z,100855.75
2019-01-25T08:42:45.318Z,100853.03
2019-01-25T08:45:18.390Z,100855.15
2019-01-25T08:47:47.242Z,100856.31
2019-01-25T08:50:27.296Z,100859.88
2019-01-25T08:52:56.089Z,100859.97
2019-01-25T08:55:24.855Z,100855.81
2019-01-25T08:57:53.546Z,100860.92
2019-01-25T09:00:24.216Z,100851.36
2019-01-25T09:02:53.261Z,100849.89
2019-01-25T09:05:21.911Z,100851.63
2019-01-25T09:07:50.772Z,100850.58
2019-01-25T09:10:21.602Z,100855.13
2019-01-25T09:12:50.393Z,100861.88
2019-01-25T09:15:22.690Z,100856.17
2019-01-25T09:17:51.436Z,100855.96
2019-01-25T09:20:22.028Z,100850.64
2019-01-25T09:22:51.152Z,100850.04
2019-01-25T09:25:19.895Z,100846.18
2019-01-25T09:27:49.453Z,100848.18
2019-01-25T09:30:26.451Z,100854.33
2019-01-25T09:32:55.245Z,100851.82
2019-01-25T09:35:24.087Z,100860.31
2019-01-25T09:37:53.137Z,100861.69
2019-01-25T09:40:26.167Z,100864.20
2019-01-25T09:42:54.846Z,100866.41
2019-01-25T09:45:23.882Z,100870.05
2019-01-25T09:47:52.657Z,100866.45
2019-01-25T09:50:22.626Z,100870.23
2019-01-25T09:52:51.394Z,100871.48
2019-01-25T09:55:25.227Z,100871.79
2019-01-25T09:58:02.730Z,100880.28
2019-01-25T10:00:40.216Z,100876.52
2019-01-25T10:03:08.938Z,100875.73
2019-01-25T10:05:37.690Z,100874.48
2019-01-25T10:08:06.613Z,100860.74
2019-01-25T10:10:35.479Z,100857.66
2019-01-25T10:13:03.967Z,100854.06
2019-01-25T10:15:32.810Z,100859.56
2019-01-25T10:18:01.265Z,100857.61
2019-01-25T10:20:30.036Z,100856.91
2019-01-25T10:22:58.458Z,100851.20
2019-01-25T10:25:27.147Z,100851.09
2019-01-25T10:27:55.562Z,100852.05
2019-01-25T10:30:26.763Z,100857.55
2019-01-25T10:32:55.287Z,100850.18
2019-01-25T10:35:24.221Z,100846.66
2019-01-25T10:37:53.508Z,100845.97
2019-01-25T10:40:23.659Z,100841.61
2019-01-25T10:42:53.700Z,100827.95
2019-01-25T10:45:40.185Z,100826.00
2019-01-25T10:48:09.344Z,100826.47
2019-01-25T10:50:37.828Z,100825.46
2019-01-25T10:53:07.871Z,100833.79
2019-01-25T10:55:36.653Z,100828.84
2019-01-25T10:58:06.285Z,100822.64
2019-01-25T11:00:35.199Z,100815.17
2019-01-25T11:03:03.830Z,100819.39
2019-01-25T11:05:32.669Z,100808.23
2019-01-25T11:08:01.356Z,100804.70
2019-01-25T11:10:30.126Z,100800.74
2019-01-25T11:13:01.062Z,100806.88
2019-01-25T11:15:29.364Z,100790.84
2019-01-25T11:17:57.938Z,100795.17
2019-01-25T11:20:27.308Z,100794.55
2019-01-25T11:22:55.754Z,100787.23
2019-01-25T11:25:33.332Z,100785.19
2019-01-25T11:28:02.036Z,100783.93
2019-01-25T11:30:30.853Z,100781.14
2019-01-25T11:32:59.590Z,100784.05
2019-01-25T11:35:28.133Z,100789.83
2019-01-25T11:37:56.554Z,100780.66
2019-01-25T11:40:30.480Z,100773.27
2019-01-25T11:42:59.233Z,100765.02
2019-01-25T11:45:27.777Z,100774.77
2019-01-25T11:47:56.611Z,100776.19
2019-01-25T11:50:25.385Z,100772.96
2019-01-25T11:52:54.153Z,100772.84
2019-01-25T11:55:22.983Z,100764.18
2019-01-25T11:57:51.695Z,100766.06
2019-01-25T12:00:25.931Z,100756.08
2019-01-25T12:02:54.479Z,100758.90
2019-01-25T12:05:24.354Z,100748.85
2019-01-25T12:07:54.019Z,100749.16
2019-01-25T12:10:28.437Z,100753.09
2019-01-25T12:12:57.208Z,100761.22
2019-01-25T12:15:26.350Z,100760.43
2019-01-25T12:17:55.192Z,100763.50
2019-01-25T12:20:28.911Z,100770.66
2019-01-25T12:22:57.749Z,100768.45
2019-01-25T12:25:26.281Z,100755.71
2019-01-25T12:27:55.344Z,100766.09
2019-01-25T12:30:28.847Z,100767.18
2019-01-25T12:32:57.600Z,100763.55
2019-01-25T12:35:28.041Z,100758.98
2019-01-25T12:37:56.915Z,100764.52
2019-01-25T12:40:25.766Z,100769.31
2019-01-25T12:42:54.526Z,100758.98
2019-01-25T12:45:28.730Z,100760.07
2019-01-25T12:47:57.236Z,100757.41
2019-01-25T12:50:31.732Z,100746.03
2019-01-25T12:53:01.551Z,100726.47
2019-01-25T12:55:32.739Z,100726.47
2019-01-25T12:58:00.334Z,100717.38
2019-01-25T13:00:30.489Z,100718.53
2019-01-25T13:02:59.495Z,100716.32
2019-01-25T13:05:28.358Z,100723.16
2019-01-25T13:07:57.107Z,100727.02
2019-01-25T13:10:27.363Z,100726.69
2019-01-25T13:12:56.294Z,100732.99
2019-01-25T13:15:24.797Z,100730.08
2019-01-25T13:17:53.371Z,100719.59
2019-01-25T13:20:27.482Z,100715.95
2019-01-25T13:22:56.313Z,100714.45
2019-01-25T13:25:24.973Z,100707.89
2019-01-25T13:27:53.715Z,100712.28
2019-01-25T13:30:32.518Z,100714.14
2019-01-25T13:33:01.173Z,100712.74
2019-01-25T13:35:30.029Z,100719.05
2019-01-25T13:37:58.739Z,100721.37
2019-01-25T13:40:28.554Z,100719.57
2019-01-25T13:42:57.375Z,100715.32
2019-01-25T13:45:26.197Z,100717.19
2019-01-25T13:47:55.045Z,100712.14
2019-01-25T13:50:28.030Z,100706.16
2019-01-25T13:52:56.820Z,100709.70
2019-01-25T13:55:25.729Z,100705.72
2019-01-25T13:57:54.552Z,100701.19
2019-01-25T14:00:31.469Z,100696.47
2019-01-25T14:03:00.190Z,100691.58
2019-01-25T14:05:29.107Z,100688.66
2019-01-25T14:07:57.894Z,100684.16
2019-01-25T14:10:29.455Z,100673.77
2019-01-25T14:12:57.944Z,100668.87
2019-01-25T14:15:26.741Z,100670.98
2019-01-25T14:17:55.512Z,100665.88
2019-01-25T14:20:27.041Z,100660.91
2019-01-25T14:22:55.847Z,100653.73
2019-01-25T14:25:24.688Z,100639.80
2019-01-25T14:27:53.511Z,100629.55
2019-01-25T14:30:31.633Z,100620.52
2019-01-25T14:33:00.387Z,100613.75
2019-01-25T14:35:30.366Z,100613.22
2019-01-25T14:37:59.236Z,100602.59
2019-01-25T14:40:28.041Z,100603.09
2019-01-25T14:42:56.997Z,100606.74
2019-01-25T14:45:26.085Z,100608.60
2019-01-25T14:47:54.845Z,100616.39
2019-01-25T14:50:26.031Z,100608.36
2019-01-25T14:52:54.471Z,100600.73
2019-01-25T14:55:23.332Z,100604.91
2019-01-25T14:57:51.890Z,100605.11
2019-01-25T15:00:20.707Z,100596.09
2019-01-25T15:02:50.365Z,100593.09
2019-01-25T15:05:20.524Z,100599.00
2019-01-25T15:07:49.362Z,100600.13
2019-01-25T15:10:20.294Z,100606.97
2019-01-25T15:12:49.918Z,100612.94
2019-01-25T15:15:18.677Z,100611.55
2019-01-25T15:17:47.236Z,100616.86
2019-01-25T15:20:18.800Z,100609.36
2019-01-25T15:22:47.593Z,100617.18
2019-01-25T15:25:16.436Z,100618.11
2019-01-25T15:27:45.250Z,100628.86
2019-01-25T15:30:25.836Z,100628.06
2019-01-25T15:32:54.772Z,100634.30
2019-01-25T15:35:24.015Z,100629.95
2019-01-25T15:37:52.810Z,100612.00
2019-01-25T15:40:22.733Z,100605.06
2019-01-25T15:42:51.571Z,100598.30
2019-01-25T15:45:22.123Z,100590.80
2019-01-25T15:47:50.972Z,100595.22
2019-01-25T15:50:28.507Z,100591.70
2019-01-25T15:52:57.283Z,100584.08
2019-01-25T15:55:26.445Z,100591.56
2019-01-25T15:57:55.262Z,100597.41
2019-01-25T16:00:26.554Z,100600.00
2019-01-25T16:02:55.445Z,100601.33
2019-01-25T16:05:24.726Z,100595.42
2019-01-25T16:07:53.298Z,100596.42
2019-01-25T16:10:23.018Z,100586.47
2019-01-25T16:12:52.347Z,100590.58
2019-01-25T16:15:23.770Z,100598.61
2019-01-25T16:17:53.422Z,100599.73
2019-01-25T16:20:22.270Z,100590.91
2019-01-25T16:22:52.998Z,100598.00
2019-01-25T16:25:24.374Z,100604.31
2019-01-25T16:27:53.185Z,100598.13
2019-01-25T16:33:08.004Z,100592.39
2019-01-25T16:35:36.864Z,100585.63
2019-01-25T16:38:05.814Z,100587.67
2019-01-25T16:40:34.642Z,100582.43
2019-01-25T16:43:03.416Z,100581.72
2019-01-25T16:45:37.538Z,100567.00
2019-01-25T16:48:06.605Z,100566.60
2019-01-25T16:50:35.456Z,100557.71
2019-01-25T16:53:04.895Z,100551.67
2019-01-25T16:55:33.398Z,100544.51
2019-01-25T16:58:01.886Z,100543.51
2019-01-25T17:00:35.835Z,100538.07
2019-01-25T17:03:04.782Z,100541.32
2019-01-25T17:05:33.430Z,100540.72
2019-01-25T17:08:02.165Z,100536.83
2019-01-25T17:10:30.741Z,100540.72
2019-01-25T17:12:59.517Z,100542.27
2019-01-25T17:15:28.214Z,100543.86
2019-01-25T17:17:57.158Z,100546.31
2019-01-25T17:20:27.907Z,100541.27
2019-01-25T17:22:56.932Z,100538.61
2019-01-25T17:25:25.748Z,100536.63
2019-01-25T17:27:54.410Z,100530.47
2019-01-25T17:30:25.582Z,100527.95
2019-01-25T17:32:55.444Z,100530.17
2019-01-25T17:35:24.354Z,100525.13
2019-01-25T17:37:53.202Z,100516.05
2019-01-25T17:40:24.843Z,100516.45
2019-01-25T17:42:53.624Z,100518.11
2019-01-25T17:45:22.487Z,100519.44
2019-01-25T17:47:51.206Z,100511.64
2019-01-25T17:50:19.989Z,100508.25
2019-01-25T17:52:48.772Z,100503.55
2019-01-25T17:55:18.544Z,100508.98
2019-01-25T17:57:47.408Z,100513.00
2019-01-25T18:00:20.824Z,100502.75
2019-01-25T18:02:49.530Z,100501.42
2019-01-25T18:05:18.332Z,100490.95
2019-01-25T18:07:47.034Z,100488.59
2019-01-25T18:10:18.155Z,100494.39
2019-01-25T18:12:46.901Z,100488.03
2019-01-25T18:15:17.467Z,100486.94
2019-01-25T18:17:46.211Z,100480.47
2019-01-25T18:20:17.079Z,100476.30
2019-01-25T18:22:45.926Z,100476.48
2019-01-25T18:25:17.433Z,100478.55
2019-01-25T18:27:49.147Z,100478.21
2019-01-25T18:30:24.628Z,100488.76
2019-01-25T18:32:53.121Z,100476.48
2019-01-25T18:35:21.638Z,100464.69
2019-01-25T18:37:50.398Z,100468.66
2019-01-25T18:40:18.851Z,100456.47
2019-01-25T18:42:47.622Z,100471.25
2019-01-25T18:45:16.494Z,100475.83
2019-01-25T18:47:44.911Z,100478.41
2019-01-25T18:50:15.866Z,100475.99
2019-01-25T18:52:44.383Z,100478.52
2019-01-25T18:55:16.036Z,100475.99
2019-01-25T18:57:44.459Z,100470.45
2019-01-25T19:00:16.727Z,100469.83
2019-01-25T19:02:45.594Z,100461.80
2019-01-25T19:05:14.146Z,100457.16
2019-01-25T19:07:42.939Z,100452.98
2019-01-25T19:10:26.358Z,100455.91
2019-01-25T19:12:55.161Z,100452.66
2019-01-25T19:15:26.790Z,100448.94
2019-01-25T19:17:55.645Z,100449.01
2019-01-25T19:20:24.404Z,100446.82
2019-01-25T19:22:53.099Z,100444.16
2019-01-25T19:25:21.626Z,100444.16
2019-01-25T19:27:50.404Z,100442.58
2019-01-25T19:30:30.617Z,100440.13
2019-01-25T19:32:59.167Z,100438.33
2019-01-25T19:35:28.119Z,100432.36
2019-01-25T19:37:57.065Z,100428.78
2019-01-25T19:40:31.357Z,100438.00
2019-01-25T19:43:00.176Z,100438.80
2019-01-25T19:45:28.997Z,100434.95
2019-01-25T19:47:57.583Z,100426.66
2019-01-25T19:50:26.400Z,100427.45
2019-01-25T19:52:55.258Z,100430.57
2019-01-25T19:55:26.496Z,100429.25
2019-01-25T19:57:55.830Z,100428.72
2019-01-25T20:00:32.958Z,100429.98
2019-01-25T20:03:01.535Z,100432.83
2019-01-25T20:05:32.430Z,100427.92
2019-01-25T20:08:01.658Z,100420.69
2019-01-25T20:10:31.970Z,100420.16
2019-01-25T20:13:00.735Z,100414.72
2019-01-25T20:15:29.307Z,100414.33
2019-01-25T20:17:58.166Z,100414.79
2019-01-25T20:20:35.500Z,100410.55
2019-01-25T20:23:04.749Z,100407.30
2019-01-25T20:25:33.557Z,100411.54
2019-01-25T20:28:02.400Z,100403.91
2019-01-25T20:30:33.301Z,100406.56
2019-01-25T20:33:03.406Z,100402.59
2019-01-25T20:35:34.721Z,100403.85
2019-01-25T20:38:03.556Z,100404.71
2019-01-25T20:40:32.115Z,100399.34
2019-01-25T20:43:00.828Z,100394.36
2019-01-25T20:45:31.882Z,100394.83
2019-01-25T20:48:00.482Z,100390.19
2019-01-25T20:50:31.506Z,100393.70
2019-01-25T20:53:00.168Z,100387.73
2019-01-25T20:55:28.702Z,100390.65
2019-01-25T20:57:58.258Z,100386.73
2019-01-25T21:00:32.049Z,100387.47
2019-01-25T21:03:00.912Z,100391.71
2019-01-25T21:05:29.583Z,100387.08
2019-01-25T21:07:58.252Z,100384.62
2019-01-25T21:10:27.302Z,100376.66
2019-01-25T21:12:56.668Z,100384.28
2019-01-25T21:15:34.838Z,100381.03
2019-01-25T21:17:58.160Z,100382.42
2019-01-25T21:20:35.364Z,100383.41
2019-01-25T21:23:04.718Z,100379.16
2019-01-25T21:25:33.746Z,100384.08
2019-01-25T21:28:03.420Z,100386.53
2019-01-25T21:30:34.466Z,100383.95
2019-01-25T21:33:03.302Z,100383.15
2019-01-25T21:35:32.075Z,100382.75
2019-01-25T21:38:00.823Z,100381.89
2019-01-25T21:40:31.792Z,100375.59
2019-01-25T21:43:00.464Z,100374.33
2019-01-25T21:45:31.325Z,100379.77
2019-01-25T21:48:00.273Z,100373.33
2019-01-25T21:50:37.488Z,100377.20
2019-01-25T21:53:06.706Z,100366.56
2019-01-25T21:55:35.444Z,100370.91
2019-01-25T21:58:05.889Z,100365.37
2019-01-25T22:00:36.175Z,100366.72
2019-01-25T22:03:06.710Z,100365.98
2019-01-25T22:05:35.602Z,100361.47
2019-01-25T22:08:05.102Z,100359.48
2019-01-25T22:10:39.830Z,100268.65
2019-01-25T22:13:08.695Z,100353.52
2019-01-25T22:15:37.472Z,100352.65
2019-01-25T22:18:06.278Z,100352.31
2019-01-25T22:20:35.083Z,100353.64
2019-01-25T22:23:03.879Z,100351.17
2019-01-25T22:25:32.635Z,100349.12
2019-01-25T22:28:01.112Z,100347.39
2019-01-25T22:30:30.348Z,100338.85
2019-01-25T22:32:59.245Z,100344.36
2019-01-25T22:35:28.580Z,100336.86
2019-01-25T22:37:56.980Z,100332.86
2019-01-25T22:40:28.340Z,100330.67
2019-01-25T22:42:57.213Z,100324.83
2019-01-25T22:45:29.505Z,100334.30
2019-01-25T22:47:59.431Z,100326.73
2019-01-25T22:50:30.460Z,100328.45
2019-01-25T22:52:58.956Z,100322.20
2019-01-25T22:55:28.106Z,100326.73
2019-01-25T22:57:56.878Z,100331.44
2019-01-25T23:00:48.165Z,100335.52
2019-01-25T23:03:25.540Z,100328.91
2019-01-25T23:06:24.538Z,100321.92
2019-01-25T23:08:53.359Z,100327.94
2019-01-25T23:11:22.191Z,100323.52
2019-01-25T23:13:50.616Z,100316.56
2019-01-25T23:16:19.112Z,100315.36
2019-01-25T23:18:47.821Z,100303.95
2019-01-25T23:21:16.318Z,100305.67
2019-01-25T23:23:44.993Z,100312.89
2019-01-25T23:26:13.783Z,100308.11
2019-01-25T23:28:42.482Z,100308.91
2019-01-25T23:31:12.394Z,100310.70
2019-01-25T23:33:41.164Z,100320.19
2019-01-25T23:36:10.082Z,100319.79
2019-01-25T23:38:38.891Z,100323.61
2019-01-25T23:41:07.409Z,100323.16
2019-01-25T23:43:35.909Z,100319.72
2019-01-25T23:46:05.192Z,100328.91
2019-01-25T23:48:33.999Z,100321.39
2019-01-25T23:51:02.738Z,100316.91
2019-01-25T23:53:31.439Z,100316.55
2019-01-25T23:56:00.130Z,100308.97
2019-01-25T23:58:28.982Z,100302.50
